createdAt,value
2018-07-01T00:00:01.296Z,13.8
2018-07-01T00:05:01.734Z,13.8
2018-07-01T00:10:02.234Z,13.7
2018-07-01T00:15:02.117Z,13.7
2018-07-01T00:20:01.559Z,13.6
2018-07-01T00:25:01.382Z,13.6
2018-07-01T00:30:01.454Z,13.6
2018-07-01T00:35:01.692Z,13.5
2018-07-01T00:40:01.244Z,13.5
2018-07-01T00:45:02.054Z,13.5
2018-07-01T00:50:01.261Z,13.3
2018-07-01T00:55:01.331Z,13.2
2018-07-01T01:00:01.572Z,13.1
2018-07-01T01:05:01.986Z,13.1
2018-07-01T01:10:02.009Z,13
2018-07-01T01:15:02.549Z,12.9
2018-07-01T01:20:01.684Z,12.9
2018-07-01T01:25:01.922Z,12.8
2018-07-01T01:30:01.875Z,12.9
2018-07-01T01:35:01.611Z,12.9
2018-07-01T01:40:01.494Z,12.8
2018-07-01T01:45:01.973Z,12.7
2018-07-01T01:50:01.686Z,12.7
2018-07-01T01:55:01.252Z,12.7
2018-07-01T02:00:01.985Z,12.5
2018-07-01T02:05:01.917Z,12.5
2018-07-01T02:10:01.673Z,12.6
2018-07-01T02:15:01.860Z,12.5
2018-07-01T02:20:01.821Z,12.4
2018-07-01T02:25:01.358Z,12.4
2018-07-01T02:30:01.333Z,12.4
2018-07-01T02:35:01.948Z,12.4
2018-07-01T02:40:01.753Z,12.4
2018-07-01T02:45:01.335Z,12.5
2018-07-01T02:50:02.183Z,12.4
2018-07-01T02:55:01.465Z,12.4
2018-07-01T03:00:01.865Z,12.4
2018-07-01T03:05:01.501Z,12.5
2018-07-01T03:10:01.926Z,12.4
2018-07-01T03:15:01.484Z,12.4
2018-07-01T03:20:01.941Z,12.4
2018-07-01T03:25:01.436Z,12.3
2018-07-01T03:30:01.811Z,12.3
2018-07-01T03:35:01.303Z,12.3
2018-07-01T03:40:01.595Z,12.4
2018-07-01T03:45:01.567Z,12.4
2018-07-01T03:50:02.081Z,12.5
2018-07-01T03:55:02.559Z,12.6
2018-07-01T04:00:01.328Z,12.7
2018-07-01T04:05:01.841Z,12.9
2018-07-01T04:10:01.673Z,13.1
2018-07-01T04:15:02.283Z,13.2
2018-07-01T04:20:01.551Z,13.4
2018-07-01T04:25:02.057Z,13.7
2018-07-01T04:30:01.863Z,13.9
2018-07-01T04:35:01.854Z,14.1
2018-07-01T04:40:01.689Z,15.6
2018-07-01T04:45:02.043Z,16.4
2018-07-01T04:50:01.860Z,17.1
2018-07-01T04:55:01.249Z,17.3
2018-07-01T05:00:01.873Z,17.3
2018-07-01T05:05:01.563Z,16.9
2018-07-01T05:10:01.980Z,16.5
2018-07-01T05:15:01.694Z,16.3
2018-07-01T05:20:01.489Z,16.4
2018-07-01T05:25:01.960Z,16.7
2018-07-01T05:30:01.746Z,16.9
2018-07-01T05:35:02.528Z,17.1
2018-07-01T05:40:01.845Z,17.1
2018-07-01T05:45:01.410Z,17.2
2018-07-01T05:50:01.889Z,17
2018-07-01T05:55:01.825Z,17.3
2018-07-01T06:00:01.376Z,17.8
2018-07-01T06:05:01.981Z,18
2018-07-01T06:10:02.167Z,18.1
2018-07-01T06:15:01.471Z,18.1
2018-07-01T06:20:01.965Z,18.3
2018-07-01T06:25:01.374Z,18.5
2018-07-01T06:30:02.059Z,18.6
2018-07-01T06:35:01.434Z,18.8
2018-07-01T06:40:02.087Z,19
2018-07-01T06:45:01.159Z,19.2
2018-07-01T06:50:02.036Z,19.5
2018-07-01T06:55:01.253Z,19.7
2018-07-01T07:00:01.685Z,19.6
2018-07-01T07:05:02.399Z,20.1
2018-07-01T07:10:01.623Z,20.1
2018-07-01T07:15:01.504Z,19.9
2018-07-01T07:20:01.982Z,20.1
2018-07-01T07:25:01.983Z,20.6
2018-07-01T07:30:01.384Z,20.8
2018-07-01T07:35:01.913Z,21.2
2018-07-01T07:40:02.099Z,21.5
2018-07-01T07:45:01.437Z,21.6
2018-07-01T07:50:01.748Z,21
2018-07-01T07:55:01.990Z,20.6
2018-07-01T08:00:01.745Z,19.9
2018-07-01T08:05:02.108Z,19.9
2018-07-01T08:10:01.204Z,20.6
2018-07-01T08:15:01.557Z,21
2018-07-01T08:20:01.696Z,21.5
2018-07-01T08:25:01.278Z,21.9
2018-07-01T08:30:01.587Z,22
2018-07-01T08:35:01.777Z,22.5
2018-07-01T08:40:02.033Z,22.6
2018-07-01T08:45:02.043Z,22.7
2018-07-01T08:50:01.422Z,23
2018-07-01T08:55:02.005Z,23
2018-07-01T09:00:01.949Z,23.3
2018-07-01T09:05:02.088Z,23.4
2018-07-01T09:10:01.836Z,23.6
2018-07-01T09:15:01.481Z,23.9
2018-07-01T09:20:01.714Z,23.8
2018-07-01T09:25:02.042Z,24
2018-07-01T09:30:01.895Z,24
2018-07-01T09:35:02.174Z,24.5
2018-07-01T09:40:01.267Z,24.2
2018-07-01T09:45:01.883Z,24.3
2018-07-01T09:50:01.275Z,24.1
2018-07-01T09:55:01.491Z,24.1
2018-07-01T10:00:02.652Z,24.1
2018-07-01T10:05:01.944Z,23.9
2018-07-01T10:10:02.067Z,24
2018-07-01T10:15:01.883Z,24.1
2018-07-01T10:20:02.046Z,24.1
2018-07-01T10:25:02.069Z,23.9
2018-07-01T10:30:01.753Z,24.3
2018-07-01T10:35:01.911Z,24.4
2018-07-01T10:40:01.722Z,24.5
2018-07-01T10:45:01.891Z,24.5
2018-07-01T10:50:02.428Z,24.6
2018-07-01T10:55:01.932Z,24.9
2018-07-01T11:00:01.481Z,24.9
2018-07-01T11:05:01.887Z,25.1
2018-07-01T11:10:02.056Z,24.8
2018-07-01T11:15:01.842Z,24.8
2018-07-01T11:20:01.695Z,25
2018-07-01T11:25:02.546Z,25.5
2018-07-01T11:30:01.973Z,25.3
2018-07-01T11:35:01.326Z,25.2
2018-07-01T11:40:01.282Z,24.9
2018-07-01T11:45:02.090Z,24.9
2018-07-01T11:50:02.015Z,24.8
2018-07-01T11:55:01.611Z,24.5
2018-07-01T12:00:02.084Z,24.9
2018-07-01T12:05:16.206Z,25.4
2018-07-01T12:10:01.855Z,25.4
2018-07-01T12:15:02.104Z,25.7
2018-07-01T12:20:01.986Z,25.5
2018-07-01T12:25:01.544Z,25.3
2018-07-01T12:30:01.314Z,25
2018-07-01T12:35:01.573Z,25
2018-07-01T12:40:01.756Z,25
2018-07-01T12:45:01.691Z,24.9
2018-07-01T12:50:01.919Z,25.3
2018-07-01T12:55:01.781Z,24.8
2018-07-01T13:00:02.184Z,24.8
2018-07-01T13:05:01.896Z,25.4
2018-07-01T13:10:01.968Z,25.7
2018-07-01T13:15:01.363Z,25.3
2018-07-01T13:20:01.325Z,24.9
2018-07-01T13:25:01.933Z,24.5
2018-07-01T13:30:01.424Z,24.5
2018-07-01T13:35:02.011Z,24.9
2018-07-01T13:40:02.286Z,24.7
2018-07-01T13:45:01.883Z,25.1
2018-07-01T13:50:01.198Z,25.2
2018-07-01T13:55:01.242Z,24.9
2018-07-01T14:00:01.948Z,24.5
2018-07-01T14:05:01.494Z,24.7
2018-07-01T14:10:01.470Z,24.7
2018-07-01T14:15:01.936Z,24.8
2018-07-01T14:20:01.837Z,24.6
2018-07-01T14:25:01.747Z,24.5
2018-07-01T14:30:02.483Z,24.5
2018-07-01T14:35:01.934Z,24.7
2018-07-01T14:40:01.824Z,25
2018-07-01T14:45:01.483Z,24.6
2018-07-01T14:50:01.709Z,24.3
2018-07-01T14:55:01.601Z,24.5
2018-07-01T15:00:02.148Z,24.5
2018-07-01T15:05:02.070Z,24.2
2018-07-01T15:10:01.260Z,24.3
2018-07-01T15:15:01.948Z,24
2018-07-01T15:20:02.020Z,24.2
2018-07-01T15:25:01.936Z,24
2018-07-01T15:30:01.346Z,24.2
2018-07-01T15:35:01.896Z,24
2018-07-01T15:40:02.120Z,23.8
2018-07-01T15:45:01.218Z,24
2018-07-01T15:50:01.639Z,24
2018-07-01T15:55:01.272Z,24
2018-07-01T16:00:01.914Z,23.8
2018-07-01T16:05:02.185Z,23.6
2018-07-01T16:10:01.300Z,23.7
2018-07-01T16:15:02.048Z,23.4
2018-07-01T16:20:01.710Z,23.3
2018-07-01T16:25:01.996Z,22.9
2018-07-01T16:30:01.656Z,23.2
2018-07-01T16:35:01.960Z,23.2
2018-07-01T16:40:01.839Z,23.2
2018-07-01T16:45:01.847Z,22.6
2018-07-01T16:50:01.892Z,22.6
2018-07-01T16:55:01.494Z,22.7
2018-07-01T17:00:02.293Z,22.7
2018-07-01T17:05:01.780Z,22.3
2018-07-01T17:10:01.696Z,22.3
2018-07-01T17:15:01.709Z,22.1
2018-07-01T17:20:01.840Z,22
2018-07-01T17:25:01.839Z,21.9
2018-07-01T17:30:01.409Z,21.8
2018-07-01T17:35:02.331Z,21.8
2018-07-01T17:40:02.107Z,21.3
2018-07-01T17:45:01.494Z,21.1
2018-07-01T17:50:01.603Z,20.7
2018-07-01T17:55:02.199Z,20.6
2018-07-01T18:00:01.256Z,20.3
2018-07-01T18:05:01.819Z,20.2
2018-07-01T18:10:01.949Z,19.9
2018-07-01T18:15:01.794Z,19.7
2018-07-01T18:20:02.203Z,19.7
2018-07-01T18:25:08.611Z,19.6
2018-07-01T18:30:01.432Z,19.6
2018-07-01T18:35:02.229Z,19.4
2018-07-01T18:40:02.446Z,19.2
2018-07-01T18:45:01.904Z,19.1
2018-07-01T18:50:01.428Z,19.1
2018-07-01T18:55:01.407Z,19.1
2018-07-01T19:00:01.697Z,18.9
2018-07-01T19:05:01.429Z,18.8
2018-07-01T19:10:02.007Z,18.8
2018-07-01T19:15:01.589Z,18.7
2018-07-01T19:20:02.296Z,18.6
2018-07-01T19:25:01.455Z,18.5
2018-07-01T19:30:01.719Z,18.4
2018-07-01T19:35:01.737Z,18.4
2018-07-01T19:40:01.869Z,18.4
2018-07-01T19:45:02.186Z,18.2
2018-07-01T19:50:02.046Z,18.1
2018-07-01T19:55:01.285Z,18
2018-07-01T20:00:02.355Z,17.9
2018-07-01T20:05:01.185Z,17.8
2018-07-01T20:10:02.159Z,17.7
2018-07-01T20:15:01.930Z,17.6
2018-07-01T20:20:01.947Z,17.4
2018-07-01T20:25:01.876Z,17.3
2018-07-01T20:30:01.202Z,17.2
2018-07-01T20:35:01.908Z,17.1
2018-07-01T20:40:01.392Z,17
2018-07-01T20:45:02.213Z,16.9
2018-07-01T20:50:02.617Z,16.8
2018-07-01T20:55:01.828Z,16.8
2018-07-01T21:00:01.532Z,16.7
2018-07-01T21:05:01.894Z,16.6
2018-07-01T21:10:01.645Z,16.5
2018-07-01T21:15:02.172Z,16.4
2018-07-01T21:20:01.719Z,16.3
2018-07-01T21:25:02.295Z,16.2
2018-07-01T21:30:01.438Z,15.7
2018-07-01T21:35:01.454Z,15.5
2018-07-01T21:40:01.836Z,15.5
2018-07-01T21:45:01.672Z,15.4
2018-07-01T21:50:01.771Z,15.3
2018-07-01T21:55:01.867Z,15
2018-07-01T22:00:02.408Z,15
2018-07-01T22:05:01.815Z,14.9
2018-07-01T22:10:01.780Z,14.8
2018-07-01T22:15:01.738Z,14.6
2018-07-01T22:20:02.330Z,14.6
2018-07-01T22:25:01.279Z,14.3
2018-07-01T22:30:02.183Z,14.1
2018-07-01T22:35:01.222Z,14
2018-07-01T22:40:01.971Z,13.9
2018-07-01T22:45:01.633Z,13.9
2018-07-01T22:50:02.083Z,13.8
2018-07-01T22:55:01.217Z,13.7
2018-07-01T23:00:01.476Z,13.7
2018-07-01T23:05:01.586Z,13.6
2018-07-01T23:10:01.441Z,13.5
2018-07-01T23:15:02.430Z,13.4
2018-07-01T23:20:01.618Z,13.3
2018-07-01T23:25:01.559Z,13.3
2018-07-01T23:30:01.623Z,13.2
2018-07-01T23:35:02.273Z,13.1
2018-07-01T23:40:02.064Z,13
2018-07-01T23:45:01.963Z,12.9
2018-07-01T23:50:01.219Z,12.9
2018-07-01T23:55:01.312Z,12.9
